KATY/ATY METAR and TAF weather

Enter ICAO airport designator
Station Type Date Time Source
KATY METAR 2018/10/21 02:53 UTC NOAA

KATY 210253Z AUTO 15003KT 10SM CLR M02/M06 A3028 RMK AO2 SLP274 T10171061 56013


Station Type Date Time Source
KATY Decoded METAR 2018/10/21 02:53 UTC NOAA

WATERTOWN MUNICIPAL AIRPORT, SD, United States (KATY) 44-54N 097-09W 532M
Oct 20, 2018 - 10:53 PM EDT / 2018.10.21 0253 UTC
Wind: from the SSE (150 degrees) at 3 MPH (3 KT):0
Visibility: 10 mile(s):0
Sky conditions: clear
Temperature: 28.9 F (-1.7 C)
Dew Point: 21.0 F (-6.1 C)
Relative Humidity: 71%
Pressure (altimeter): 30.28 in. Hg (1025 hPa)
Pressure tendency: 0.04 inches (1.3 hPa) lower than three hours ago
ob: KATY 210253Z AUTO 15003KT 10SM CLR M02/M06 A3028 RMK AO2 SLP274 T10171061 56013
cycle: 3

Station Type Date Time Source
KATY TAF 2018/10/20 21:58 UTC NOAA

TAF
AMD KATY 202058Z 2021/2118 31010KT P6SM SKC
FM210400 17005KT P6SM FEW250
FM211000 19013KT P6SM SKC WS020/22040KT
FM211500 22012G23KT P6SM SKC


Example: see airport list